Terminal Aerodrome Forecast
Issued by NWS Mt. Holly, NJ

Home | Current Version | Previous Version | Text Only | Print | Product List | Glossary On
Versions: 1 2 3 4 5 6 7 8 9 10 11 12 13 14 15 16 17 18
000
FTUS41 KPHI 181351 AAA
TAFRDG
TAF AMD
KRDG 181351Z 1814/1912 VRB04KT P6SM BKN120
     FM181500 16009KT 6SM -SHRA OVC050
      TEMPO 1816/1820 4SM SHRA OVC030
     FM182300 17008KT P6SM VCSH OVC015 WS020/21040KT
     FM190700 20012G24KT 4SM SHRA BR OVC015=

USA.gov is the U.S. government's official web portal to all federal, state and local government web resources and services.